sensor_id;sensor_type;location;lat;lon;timestamp;P1;durP1;ratioP1;P2;durP2;ratioP2
81298;SDS011;70766;53.170;18.160;2024-02-26T00:01:12;64.40;;;26.90;;
81298;SDS011;70766;53.170;18.160;2024-02-26T00:03:54;55.00;;;24.50;;
81298;SDS011;70766;53.170;18.160;2024-02-26T00:06:27;56.70;;;24.50;;
81298;SDS011;70766;53.170;18.160;2024-02-26T00:08:55;58.90;;;24.40;;
81298;SDS011;70766;53.170;18.160;2024-02-26T00:11:24;59.80;;;23.80;;
81298;SDS011;70766;53.170;18.160;2024-02-26T00:13:52;70.20;;;29.70;;
81298;SDS011;70766;53.170;18.160;2024-02-26T00:16:20;69.50;;;27.40;;
81298;SDS011;70766;53.170;18.160;2024-02-26T00:18:48;67.90;;;28.20;;
81298;SDS011;70766;53.170;18.160;2024-02-26T00:21:17;66.20;;;27.20;;
81298;SDS011;70766;53.170;18.160;2024-02-26T00:23:46;57.40;;;25.30;;
81298;SDS011;70766;53.170;18.160;2024-02-26T00:26:14;88.30;;;34.30;;
81298;SDS011;70766;53.170;18.160;2024-02-26T00:28:43;80.80;;;33.40;;
81298;SDS011;70766;53.170;18.160;2024-02-26T00:31:11;82.70;;;32.50;;
81298;SDS011;70766;53.170;18.160;2024-02-26T00:33:39;68.40;;;28.40;;
81298;SDS011;70766;53.170;18.160;2024-02-26T00:36:08;68.10;;;27.20;;
81298;SDS011;70766;53.170;18.160;2024-02-26T00:38:36;70.40;;;27.70;;
81298;SDS011;70766;53.170;18.160;2024-02-26T00:41:04;86.10;;;30.80;;
81298;SDS011;70766;53.170;18.160;2024-02-26T00:43:32;89.40;;;32.30;;
81298;SDS011;70766;53.170;18.160;2024-02-26T00:46:00;77.80;;;27.70;;
81298;SDS011;70766;53.170;18.160;2024-02-26T00:48:30;79.20;;;27.90;;
81298;SDS011;70766;53.170;18.160;2024-02-26T00:50:58;70.90;;;27.70;;
81298;SDS011;70766;53.170;18.160;2024-02-26T00:53:26;84.50;;;28.80;;
81298;SDS011;70766;53.170;18.160;2024-02-26T00:55:56;71.10;;;25.90;;
81298;SDS011;70766;53.170;18.160;2024-02-26T00:58:28;74.90;;;26.90;;
81298;SDS011;70766;53.170;18.160;2024-02-26T01:00:57;65.50;;;25.50;;
81298;SDS011;70766;53.170;18.160;2024-02-26T01:03:25;67.00;;;25.30;;
81298;SDS011;70766;53.170;18.160;2024-02-26T01:05:53;56.60;;;23.30;;
81298;SDS011;70766;53.170;18.160;2024-02-26T01:08:25;80.60;;;30.50;;
81298;SDS011;70766;53.170;18.160;2024-02-26T01:10:53;94.50;;;35.40;;
81298;SDS011;70766;53.170;18.160;2024-02-26T01:13:22;83.90;;;30.30;;
81298;SDS011;70766;53.170;18.160;2024-02-26T01:15:50;76.60;;;28.00;;
81298;SDS011;70766;53.170;18.160;2024-02-26T01:18:18;66.20;;;25.90;;
81298;SDS011;70766;53.170;18.160;2024-02-26T01:20:46;66.10;;;24.90;;
81298;SDS011;70766;53.170;18.160;2024-02-26T01:23:15;59.20;;;24.40;;
81298;SDS011;70766;53.170;18.160;2024-02-26T01:25:43;61.40;;;24.00;;
81298;SDS011;70766;53.170;18.160;2024-02-26T01:28:11;63.90;;;24.90;;
81298;SDS011;70766;53.170;18.160;2024-02-26T01:30:39;60.90;;;23.50;;
81298;SDS011;70766;53.170;18.160;2024-02-26T01:33:07;61.80;;;24.10;;
81298;SDS011;70766;53.170;18.160;2024-02-26T01:35:36;58.80;;;23.30;;
81298;SDS011;70766;53.170;18.160;2024-02-26T01:38:04;61.40;;;24.30;;
81298;SDS011;70766;53.170;18.160;2024-02-26T01:40:33;56.50;;;23.40;;
81298;SDS011;70766;53.170;18.160;2024-02-26T01:43:01;49.70;;;21.30;;
81298;SDS011;70766;53.170;18.160;2024-02-26T01:45:30;66.60;;;25.40;;
81298;SDS011;70766;53.170;18.160;2024-02-26T01:47:58;60.70;;;23.80;;
81298;SDS011;70766;53.170;18.160;2024-02-26T01:50:26;55.60;;;23.50;;
81298;SDS011;70766;53.170;18.160;2024-02-26T01:52:55;58.00;;;23.30;;
81298;SDS011;70766;53.170;18.160;2024-02-26T01:55:25;61.40;;;23.80;;
81298;SDS011;70766;53.170;18.160;2024-02-26T01:57:54;44.70;;;19.30;;
81298;SDS011;70766;53.170;18.160;2024-02-26T02:00:23;60.20;;;23.70;;
81298;SDS011;70766;53.170;18.160;2024-02-26T02:02:52;86.70;;;30.00;;
81298;SDS011;70766;53.170;18.160;2024-02-26T02:05:22;66.20;;;27.40;;
81298;SDS011;70766;53.170;18.160;2024-02-26T02:07:52;81.10;;;31.20;;
81298;SDS011;70766;53.170;18.160;2024-02-26T02:10:21;88.20;;;31.90;;
81298;SDS011;70766;53.170;18.160;2024-02-26T02:12:53;90.60;;;32.20;;
81298;SDS011;70766;53.170;18.160;2024-02-26T02:15:21;80.40;;;30.70;;
81298;SDS011;70766;53.170;18.160;2024-02-26T02:17:50;75.20;;;28.10;;
81298;SDS011;70766;53.170;18.160;2024-02-26T02:20:18;62.40;;;25.10;;
81298;SDS011;70766;53.170;18.160;2024-02-26T02:22:47;58.80;;;24.20;;
81298;SDS011;70766;53.170;18.160;2024-02-26T02:25:15;53.90;;;23.80;;
81298;SDS011;70766;53.170;18.160;2024-02-26T02:27:43;68.70;;;25.30;;
81298;SDS011;70766;53.170;18.160;2024-02-26T02:30:11;70.90;;;26.60;;
81298;SDS011;70766;53.170;18.160;2024-02-26T02:32:40;76.20;;;28.40;;
81298;SDS011;70766;53.170;18.160;2024-02-26T02:35:12;68.10;;;24.70;;
81298;SDS011;70766;53.170;18.160;2024-02-26T02:37:40;81.10;;;28.80;;
81298;SDS011;70766;53.170;18.160;2024-02-26T02:40:08;77.30;;;29.00;;
81298;SDS011;70766;53.170;18.160;2024-02-26T02:42:37;96.70;;;33.50;;
81298;SDS011;70766;53.170;18.160;2024-02-26T02:45:05;79.70;;;27.90;;
81298;SDS011;70766;53.170;18.160;2024-02-26T02:47:36;93.20;;;31.60;;
81298;SDS011;70766;53.170;18.160;2024-02-26T02:50:05;100.40;;;34.10;;
81298;SDS011;70766;53.170;18.160;2024-02-26T02:52:34;85.00;;;27.70;;
81298;SDS011;70766;53.170;18.160;2024-02-26T02:55:02;79.20;;;27.10;;
81298;SDS011;70766;53.170;18.160;2024-02-26T02:57:30;50.70;;;19.90;;
81298;SDS011;70766;53.170;18.160;2024-02-26T03:00:00;44.70;;;20.60;;
81298;SDS011;70766;53.170;18.160;2024-02-26T03:02:28;42.60;;;20.00;;
81298;SDS011;70766;53.170;18.160;2024-02-26T03:04:57;55.70;;;23.60;;
81298;SDS011;70766;53.170;18.160;2024-02-26T03:07:25;86.20;;;30.60;;
81298;SDS011;70766;53.170;18.160;2024-02-26T03:09:54;81.60;;;31.20;;
81298;SDS011;70766;53.170;18.160;2024-02-26T03:12:22;81.70;;;30.60;;
81298;SDS011;70766;53.170;18.160;2024-02-26T03:14:51;85.90;;;30.20;;
81298;SDS011;70766;53.170;18.160;2024-02-26T03:17:20;73.20;;;25.00;;
81298;SDS011;70766;53.170;18.160;2024-02-26T03:19:48;82.10;;;29.40;;
81298;SDS011;70766;53.170;18.160;2024-02-26T03:22:21;141.60;;;29.90;;
81298;SDS011;70766;53.170;18.160;2024-02-26T03:24:49;153.40;;;31.90;;
81298;SDS011;70766;53.170;18.160;2024-02-26T03:27:17;140.70;;;27.80;;
81298;SDS011;70766;53.170;18.160;2024-02-26T03:29:45;155.70;;;28.10;;
81298;SDS011;70766;53.170;18.160;2024-02-26T03:32:14;147.40;;;28.60;;
81298;SDS011;70766;53.170;18.160;2024-02-26T03:34:42;144.90;;;27.60;;
81298;SDS011;70766;53.170;18.160;2024-02-26T03:37:10;184.70;;;32.30;;
81298;SDS011;70766;53.170;18.160;2024-02-26T03:39:38;146.80;;;31.60;;
81298;SDS011;70766;53.170;18.160;2024-02-26T03:42:06;210.70;;;37.30;;
81298;SDS011;70766;53.170;18.160;2024-02-26T03:44:35;208.70;;;37.80;;
81298;SDS011;70766;53.170;18.160;2024-02-26T03:47:03;183.10;;;41.00;;
81298;SDS011;70766;53.170;18.160;2024-02-26T03:49:31;204.20;;;42.30;;
81298;SDS011;70766;53.170;18.160;2024-02-26T03:51:59;223.40;;;39.00;;
81298;SDS011;70766;53.170;18.160;2024-02-26T03:54:27;249.20;;;40.00;;
81298;SDS011;70766;53.170;18.160;2024-02-26T03:56:55;159.50;;;32.10;;
81298;SDS011;70766;53.170;18.160;2024-02-26T03:59:23;164.10;;;29.40;;
81298;SDS011;70766;53.170;18.160;2024-02-26T04:01:52;77.10;;;21.70;;
81298;SDS011;70766;53.170;18.160;2024-02-26T04:04:21;113.70;;;25.90;;
81298;SDS011;70766;53.170;18.160;2024-02-26T04:06:49;74.40;;;20.10;;
81298;SDS011;70766;53.170;18.160;2024-02-26T04:09:17;95.30;;;23.20;;
81298;SDS011;70766;53.170;18.160;2024-02-26T04:11:45;53.60;;;19.40;;
81298;SDS011;70766;53.170;18.160;2024-02-26T04:14:14;67.30;;;19.50;;
81298;SDS011;70766;53.170;18.160;2024-02-26T04:16:42;104.80;;;23.00;;
81298;SDS011;70766;53.170;18.160;2024-02-26T04:19:10;104.90;;;22.10;;
81298;SDS011;70766;53.170;18.160;2024-02-26T04:21:40;53.50;;;17.50;;
81298;SDS011;70766;53.170;18.160;2024-02-26T04:24:09;124.60;;;23.90;;
81298;SDS011;70766;53.170;18.160;2024-02-26T04:26:37;115.20;;;23.40;;
81298;SDS011;70766;53.170;18.160;2024-02-26T04:29:05;71.10;;;20.30;;
81298;SDS011;70766;53.170;18.160;2024-02-26T04:31:33;62.20;;;19.30;;
81298;SDS011;70766;53.170;18.160;2024-02-26T04:34:01;57.90;;;19.90;;
81298;SDS011;70766;53.170;18.160;2024-02-26T04:36:30;62.90;;;20.80;;
81298;SDS011;70766;53.170;18.160;2024-02-26T04:38:58;165.70;;;26.20;;
81298;SDS011;70766;53.170;18.160;2024-02-26T04:41:26;120.90;;;25.60;;
81298;SDS011;70766;53.170;18.160;2024-02-26T04:43:54;101.20;;;25.90;;
81298;SDS011;70766;53.170;18.160;2024-02-26T04:46:23;88.30;;;22.60;;
81298;SDS011;70766;53.170;18.160;2024-02-26T04:48:51;115.00;;;25.60;;
81298;SDS011;70766;53.170;18.160;2024-02-26T04:51:22;107.30;;;23.90;;
81298;SDS011;70766;53.170;18.160;2024-02-26T04:53:51;129.00;;;27.90;;
81298;SDS011;70766;53.170;18.160;2024-02-26T04:56:21;92.50;;;24.10;;
81298;SDS011;70766;53.170;18.160;2024-02-26T04:58:50;64.30;;;22.50;;
81298;SDS011;70766;53.170;18.160;2024-02-26T05:01:18;69.80;;;24.20;;
81298;SDS011;70766;53.170;18.160;2024-02-26T05:03:46;65.40;;;24.10;;
81298;SDS011;70766;53.170;18.160;2024-02-26T05:06:15;70.00;;;24.90;;
81298;SDS011;70766;53.170;18.160;2024-02-26T05:08:43;99.80;;;26.20;;
81298;SDS011;70766;53.170;18.160;2024-02-26T05:11:12;83.50;;;27.50;;
81298;SDS011;70766;53.170;18.160;2024-02-26T05:13:40;78.90;;;26.10;;
81298;SDS011;70766;53.170;18.160;2024-02-26T05:16:09;76.20;;;24.50;;
81298;SDS011;70766;53.170;18.160;2024-02-26T05:18:37;78.20;;;23.10;;
81298;SDS011;70766;53.170;18.160;2024-02-26T05:21:05;73.30;;;22.80;;
81298;SDS011;70766;53.170;18.160;2024-02-26T05:23:33;98.00;;;27.10;;
81298;SDS011;70766;53.170;18.160;2024-02-26T05:26:01;53.00;;;21.80;;
81298;SDS011;70766;53.170;18.160;2024-02-26T05:28:29;89.10;;;21.90;;
81298;SDS011;70766;53.170;18.160;2024-02-26T05:30:57;82.20;;;25.90;;
81298;SDS011;70766;53.170;18.160;2024-02-26T05:33:27;70.20;;;21.10;;
81298;SDS011;70766;53.170;18.160;2024-02-26T05:35:55;54.40;;;21.10;;
81298;SDS011;70766;53.170;18.160;2024-02-26T05:38:23;41.10;;;17.50;;
81298;SDS011;70766;53.170;18.160;2024-02-26T05:40:51;78.10;;;23.70;;
81298;SDS011;70766;53.170;18.160;2024-02-26T05:43:20;87.50;;;25.70;;
81298;SDS011;70766;53.170;18.160;2024-02-26T05:45:48;90.70;;;27.50;;
81298;SDS011;70766;53.170;18.160;2024-02-26T05:48:16;77.70;;;23.40;;
81298;SDS011;70766;53.170;18.160;2024-02-26T05:50:45;64.10;;;23.10;;
81298;SDS011;70766;53.170;18.160;2024-02-26T05:53:14;57.00;;;21.10;;
81298;SDS011;70766;53.170;18.160;2024-02-26T05:55:42;80.00;;;20.70;;
81298;SDS011;70766;53.170;18.160;2024-02-26T05:58:10;68.90;;;22.40;;
81298;SDS011;70766;53.170;18.160;2024-02-26T06:00:38;39.90;;;16.90;;
81298;SDS011;70766;53.170;18.160;2024-02-26T06:03:07;47.80;;;19.80;;
81298;SDS011;70766;53.170;18.160;2024-02-26T06:05:35;64.70;;;24.40;;
81298;SDS011;70766;53.170;18.160;2024-02-26T06:08:03;70.50;;;22.10;;
81298;SDS011;70766;53.170;18.160;2024-02-26T06:10:32;65.60;;;20.70;;
81298;SDS011;70766;53.170;18.160;2024-02-26T06:13:00;62.80;;;20.80;;
81298;SDS011;70766;53.170;18.160;2024-02-26T06:15:28;66.00;;;22.30;;
81298;SDS011;70766;53.170;18.160;2024-02-26T06:17:57;81.00;;;23.00;;
81298;SDS011;70766;53.170;18.160;2024-02-26T06:20:25;94.30;;;22.70;;
81298;SDS011;70766;53.170;18.160;2024-02-26T06:22:53;63.30;;;19.70;;
81298;SDS011;70766;53.170;18.160;2024-02-26T06:25:21;56.50;;;18.90;;
81298;SDS011;70766;53.170;18.160;2024-02-26T06:27:50;50.20;;;18.00;;
81298;SDS011;70766;53.170;18.160;2024-02-26T06:30:18;30.30;;;13.60;;
81298;SDS011;70766;53.170;18.160;2024-02-26T06:32:46;62.60;;;19.40;;
81298;SDS011;70766;53.170;18.160;2024-02-26T06:35:14;72.30;;;21.90;;
81298;SDS011;70766;53.170;18.160;2024-02-26T06:37:42;47.00;;;17.20;;
81298;SDS011;70766;53.170;18.160;2024-02-26T06:40:10;39.40;;;16.30;;
81298;SDS011;70766;53.170;18.160;2024-02-26T06:42:38;36.70;;;15.20;;
81298;SDS011;70766;53.170;18.160;2024-02-26T06:45:07;38.30;;;16.30;;
81298;SDS011;70766;53.170;18.160;2024-02-26T06:47:36;56.20;;;19.30;;
81298;SDS011;70766;53.170;18.160;2024-02-26T06:50:04;56.90;;;20.10;;
81298;SDS011;70766;53.170;18.160;2024-02-26T06:52:32;43.60;;;18.70;;
81298;SDS011;70766;53.170;18.160;2024-02-26T06:55:00;39.10;;;19.10;;
81298;SDS011;70766;53.170;18.160;2024-02-26T06:57:28;53.90;;;18.70;;
81298;SDS011;70766;53.170;18.160;2024-02-26T06:59:57;79.30;;;20.70;;
81298;SDS011;70766;53.170;18.160;2024-02-26T07:02:27;57.30;;;16.70;;
81298;SDS011;70766;53.170;18.160;2024-02-26T07:04:55;38.60;;;17.10;;
81298;SDS011;70766;53.170;18.160;2024-02-26T07:07:26;28.80;;;15.50;;
81298;SDS011;70766;53.170;18.160;2024-02-26T07:09:54;31.40;;;15.20;;
81298;SDS011;70766;53.170;18.160;2024-02-26T07:12:23;28.10;;;11.50;;
81298;SDS011;70766;53.170;18.160;2024-02-26T07:14:51;33.10;;;15.20;;
81298;SDS011;70766;53.170;18.160;2024-02-26T07:17:20;32.50;;;15.40;;
81298;SDS011;70766;53.170;18.160;2024-02-26T07:19:48;57.40;;;17.10;;
81298;SDS011;70766;53.170;18.160;2024-02-26T07:22:16;36.10;;;15.30;;
81298;SDS011;70766;53.170;18.160;2024-02-26T07:24:45;71.10;;;22.00;;
81298;SDS011;70766;53.170;18.160;2024-02-26T07:27:13;66.40;;;21.40;;
81298;SDS011;70766;53.170;18.160;2024-02-26T07:29:41;53.40;;;18.70;;
81298;SDS011;70766;53.170;18.160;2024-02-26T07:32:10;29.20;;;14.20;;
81298;SDS011;70766;53.170;18.160;2024-02-26T07:34:38;78.00;;;21.50;;
81298;SDS011;70766;53.170;18.160;2024-02-26T07:37:10;43.20;;;16.50;;
81298;SDS011;70766;53.170;18.160;2024-02-26T07:39:39;51.10;;;17.60;;
81298;SDS011;70766;53.170;18.160;2024-02-26T07:42:07;60.60;;;19.00;;
81298;SDS011;70766;53.170;18.160;2024-02-26T07:44:36;126.30;;;23.60;;
81298;SDS011;70766;53.170;18.160;2024-02-26T07:47:04;43.00;;;17.10;;
81298;SDS011;70766;53.170;18.160;2024-02-26T07:49:32;113.20;;;20.60;;
81298;SDS011;70766;53.170;18.160;2024-02-26T07:52:05;44.10;;;16.50;;
81298;SDS011;70766;53.170;18.160;2024-02-26T07:54:34;100.40;;;20.70;;
81298;SDS011;70766;53.170;18.160;2024-02-26T07:57:02;61.70;;;19.10;;
81298;SDS011;70766;53.170;18.160;2024-02-26T07:59:33;80.80;;;19.90;;
81298;SDS011;70766;53.170;18.160;2024-02-26T08:02:01;30.20;;;15.00;;
81298;SDS011;70766;53.170;18.160;2024-02-26T08:04:30;43.00;;;17.40;;
81298;SDS011;70766;53.170;18.160;2024-02-26T08:06:59;30.30;;;14.90;;
81298;SDS011;70766;53.170;18.160;2024-02-26T08:09:27;37.70;;;15.40;;
81298;SDS011;70766;53.170;18.160;2024-02-26T08:11:55;33.40;;;15.70;;
81298;SDS011;70766;53.170;18.160;2024-02-26T08:14:24;29.80;;;14.40;;
81298;SDS011;70766;53.170;18.160;2024-02-26T08:16:52;42.90;;;16.40;;
81298;SDS011;70766;53.170;18.160;2024-02-26T08:19:20;73.70;;;23.20;;
81298;SDS011;70766;53.170;18.160;2024-02-26T08:21:48;37.80;;;15.50;;
81298;SDS011;70766;53.170;18.160;2024-02-26T08:24:16;30.10;;;14.00;;
81298;SDS011;70766;53.170;18.160;2024-02-26T08:26:47;55.10;;;21.00;;
81298;SDS011;70766;53.170;18.160;2024-02-26T08:29:28;61.30;;;24.60;;
81298;SDS011;70766;53.170;18.160;2024-02-26T08:31:57;65.70;;;24.90;;
81298;SDS011;70766;53.170;18.160;2024-02-26T08:34:25;61.70;;;23.50;;
81298;SDS011;70766;53.170;18.160;2024-02-26T08:36:54;45.10;;;19.90;;
81298;SDS011;70766;53.170;18.160;2024-02-26T08:39:22;43.50;;;21.70;;
81298;SDS011;70766;53.170;18.160;2024-02-26T08:41:50;43.20;;;20.20;;
81298;SDS011;70766;53.170;18.160;2024-02-26T08:44:18;35.60;;;17.00;;
81298;SDS011;70766;53.170;18.160;2024-02-26T08:46:46;42.50;;;20.00;;
81298;SDS011;70766;53.170;18.160;2024-02-26T08:49:14;69.90;;;25.60;;
81298;SDS011;70766;53.170;18.160;2024-02-26T08:51:44;55.60;;;21.90;;
81298;SDS011;70766;53.170;18.160;2024-02-26T08:54:13;39.60;;;19.80;;
81298;SDS011;70766;53.170;18.160;2024-02-26T08:56:41;52.50;;;22.00;;
81298;SDS011;70766;53.170;18.160;2024-02-26T08:59:09;53.00;;;22.50;;
81298;SDS011;70766;53.170;18.160;2024-02-26T09:01:37;59.80;;;25.10;;
81298;SDS011;70766;53.170;18.160;2024-02-26T09:04:05;99.70;;;27.10;;
81298;SDS011;70766;53.170;18.160;2024-02-26T09:06:34;57.60;;;24.40;;
81298;SDS011;70766;53.170;18.160;2024-02-26T09:09:02;60.80;;;26.40;;
81298;SDS011;70766;53.170;18.160;2024-02-26T09:11:31;58.60;;;26.80;;
81298;SDS011;70766;53.170;18.160;2024-02-26T09:13:59;61.60;;;26.60;;
81298;SDS011;70766;53.170;18.160;2024-02-26T09:16:27;52.90;;;25.90;;
81298;SDS011;70766;53.170;18.160;2024-02-26T09:18:56;53.00;;;28.30;;
81298;SDS011;70766;53.170;18.160;2024-02-26T09:21:25;52.80;;;27.10;;
81298;SDS011;70766;53.170;18.160;2024-02-26T09:23:54;51.00;;;25.20;;
81298;SDS011;70766;53.170;18.160;2024-02-26T09:26:22;44.40;;;21.10;;
81298;SDS011;70766;53.170;18.160;2024-02-26T09:28:50;61.40;;;29.40;;
81298;SDS011;70766;53.170;18.160;2024-02-26T09:31:18;58.60;;;28.90;;
81298;SDS011;70766;53.170;18.160;2024-02-26T09:33:46;55.90;;;29.60;;
81298;SDS011;70766;53.170;18.160;2024-02-26T09:36:14;57.30;;;28.90;;
81298;SDS011;70766;53.170;18.160;2024-02-26T09:38:43;55.70;;;28.10;;
81298;SDS011;70766;53.170;18.160;2024-02-26T09:41:23;46.00;;;22.40;;
81298;SDS011;70766;53.170;18.160;2024-02-26T09:43:52;59.80;;;28.10;;
81298;SDS011;70766;53.170;18.160;2024-02-26T09:46:25;58.10;;;26.80;;
81298;SDS011;70766;53.170;18.160;2024-02-26T09:48:53;60.30;;;30.50;;
81298;SDS011;70766;53.170;18.160;2024-02-26T09:51:23;61.60;;;31.30;;
81298;SDS011;70766;53.170;18.160;2024-02-26T09:53:53;64.00;;;31.80;;
81298;SDS011;70766;53.170;18.160;2024-02-26T09:56:24;60.50;;;32.00;;
81298;SDS011;70766;53.170;18.160;2024-02-26T09:58:53;59.00;;;32.10;;
81298;SDS011;70766;53.170;18.160;2024-02-26T10:01:24;61.90;;;32.10;;
81298;SDS011;70766;53.170;18.160;2024-02-26T10:03:56;60.10;;;29.10;;
81298;SDS011;70766;53.170;18.160;2024-02-26T10:06:26;65.00;;;34.00;;
81298;SDS011;70766;53.170;18.160;2024-02-26T10:08:56;66.60;;;32.50;;
81298;SDS011;70766;53.170;18.160;2024-02-26T10:11:27;53.80;;;27.60;;
81298;SDS011;70766;53.170;18.160;2024-02-26T10:13:59;63.10;;;32.30;;
81298;SDS011;70766;53.170;18.160;2024-02-26T10:16:27;55.50;;;29.70;;
81298;SDS011;70766;53.170;18.160;2024-02-26T10:18:56;60.70;;;32.10;;
81298;SDS011;70766;53.170;18.160;2024-02-26T10:21:27;60.80;;;32.10;;
81298;SDS011;70766;53.170;18.160;2024-02-26T10:23:56;63.80;;;33.20;;
81298;SDS011;70766;53.170;18.160;2024-02-26T10:26:24;65.20;;;35.10;;
81298;SDS011;70766;53.170;18.160;2024-02-26T10:28:52;65.70;;;36.20;;
81298;SDS011;70766;53.170;18.160;2024-02-26T10:31:22;53.30;;;29.40;;
81298;SDS011;70766;53.170;18.160;2024-02-26T10:33:51;55.90;;;31.30;;
81298;SDS011;70766;53.170;18.160;2024-02-26T10:36:27;59.00;;;32.20;;
81298;SDS011;70766;53.170;18.160;2024-02-26T10:39:11;59.90;;;33.90;;
81298;SDS011;70766;53.170;18.160;2024-02-26T10:41:41;57.50;;;32.40;;
81298;SDS011;70766;53.170;18.160;2024-02-26T10:44:11;48.30;;;25.50;;
81298;SDS011;70766;53.170;18.160;2024-02-26T10:46:46;55.40;;;32.20;;
81298;SDS011;70766;53.170;18.160;2024-02-26T10:49:19;55.70;;;32.50;;
81298;SDS011;70766;53.170;18.160;2024-02-26T10:51:53;51.60;;;27.60;;
81298;SDS011;70766;53.170;18.160;2024-02-26T10:54:27;52.80;;;28.10;;
81298;SDS011;70766;53.170;18.160;2024-02-26T10:56:58;46.00;;;24.80;;
81298;SDS011;70766;53.170;18.160;2024-02-26T10:59:27;49.40;;;27.70;;
81298;SDS011;70766;53.170;18.160;2024-02-26T11:01:55;47.20;;;26.60;;
81298;SDS011;70766;53.170;18.160;2024-02-26T11:04:25;48.60;;;27.60;;
81298;SDS011;70766;53.170;18.160;2024-02-26T11:06:56;39.70;;;21.60;;
81298;SDS011;70766;53.170;18.160;2024-02-26T11:09:25;54.80;;;30.30;;
81298;SDS011;70766;53.170;18.160;2024-02-26T11:11:55;47.80;;;25.70;;
81298;SDS011;70766;53.170;18.160;2024-02-26T11:14:25;50.80;;;27.10;;
81298;SDS011;70766;53.170;18.160;2024-02-26T11:16:55;51.50;;;25.10;;
81298;SDS011;70766;53.170;18.160;2024-02-26T11:19:24;56.20;;;30.20;;
81298;SDS011;70766;53.170;18.160;2024-02-26T11:21:54;55.90;;;31.90;;
81298;SDS011;70766;53.170;18.160;2024-02-26T11:24:26;53.20;;;28.50;;
81298;SDS011;70766;53.170;18.160;2024-02-26T11:26:57;55.40;;;29.70;;
81298;SDS011;70766;53.170;18.160;2024-02-26T11:29:33;49.40;;;27.40;;
81298;SDS011;70766;53.170;18.160;2024-02-26T11:32:06;54.80;;;32.00;;
81298;SDS011;70766;53.170;18.160;2024-02-26T20:51:31;53.80;;;25.50;;
81298;SDS011;70766;53.170;18.160;2024-02-26T20:53:59;31.30;;;16.50;;
81298;SDS011;70766;53.170;18.160;2024-02-26T20:56:27;41.30;;;18.70;;
81298;SDS011;70766;53.170;18.160;2024-02-26T20:58:55;37.40;;;18.10;;
81298;SDS011;70766;53.170;18.160;2024-02-26T21:01:24;52.90;;;27.10;;
81298;SDS011;70766;53.170;18.160;2024-02-26T21:03:53;42.40;;;19.70;;
81298;SDS011;70766;53.170;18.160;2024-02-26T21:06:22;36.40;;;17.50;;
81298;SDS011;70766;53.170;18.160;2024-02-26T21:08:50;52.30;;;24.00;;
81298;SDS011;70766;53.170;18.160;2024-02-26T21:11:19;52.30;;;24.10;;
81298;SDS011;70766;53.170;18.160;2024-02-26T21:13:48;53.00;;;25.60;;
81298;SDS011;70766;53.170;18.160;2024-02-26T21:16:17;56.30;;;26.80;;
81298;SDS011;70766;53.170;18.160;2024-02-26T21:18:45;47.70;;;22.30;;
81298;SDS011;70766;53.170;18.160;2024-02-26T21:21:13;48.60;;;22.80;;
81298;SDS011;70766;53.170;18.160;2024-02-26T21:23:41;53.00;;;26.70;;
81298;SDS011;70766;53.170;18.160;2024-02-26T21:26:09;28.10;;;12.70;;
81298;SDS011;70766;53.170;18.160;2024-02-26T21:28:42;45.80;;;23.00;;
81298;SDS011;70766;53.170;18.160;2024-02-26T21:31:11;45.30;;;21.90;;
81298;SDS011;70766;53.170;18.160;2024-02-26T21:33:39;53.60;;;25.60;;
81298;SDS011;70766;53.170;18.160;2024-02-26T21:36:08;60.20;;;27.00;;
81298;SDS011;70766;53.170;18.160;2024-02-26T21:38:36;39.00;;;18.80;;
81298;SDS011;70766;53.170;18.160;2024-02-26T21:41:17;47.50;;;21.70;;
81298;SDS011;70766;53.170;18.160;2024-02-26T21:43:47;56.40;;;25.90;;
81298;SDS011;70766;53.170;18.160;2024-02-26T21:46:22;48.20;;;23.20;;
81298;SDS011;70766;53.170;18.160;2024-02-26T21:48:52;52.30;;;26.40;;
81298;SDS011;70766;53.170;18.160;2024-02-26T21:51:20;50.30;;;25.20;;
81298;SDS011;70766;53.170;18.160;2024-02-26T21:53:48;48.10;;;22.20;;
81298;SDS011;70766;53.170;18.160;2024-02-26T21:56:17;59.00;;;28.30;;
81298;SDS011;70766;53.170;18.160;2024-02-26T21:58:46;56.50;;;27.90;;
81298;SDS011;70766;53.170;18.160;2024-02-26T22:01:14;27.20;;;14.20;;
81298;SDS011;70766;53.170;18.160;2024-02-26T22:03:42;51.90;;;25.00;;
81298;SDS011;70766;53.170;18.160;2024-02-26T22:06:11;46.60;;;20.80;;
81298;SDS011;70766;53.170;18.160;2024-02-26T22:08:39;49.40;;;24.00;;
81298;SDS011;70766;53.170;18.160;2024-02-26T22:11:08;41.20;;;18.60;;
81298;SDS011;70766;53.170;18.160;2024-02-26T22:13:36;48.40;;;23.70;;
81298;SDS011;70766;53.170;18.160;2024-02-26T22:16:04;42.80;;;20.20;;
81298;SDS011;70766;53.170;18.160;2024-02-26T22:18:33;37.70;;;16.30;;
81298;SDS011;70766;53.170;18.160;2024-02-26T22:21:01;51.50;;;24.60;;
81298;SDS011;70766;53.170;18.160;2024-02-26T22:23:32;40.80;;;18.50;;
81298;SDS011;70766;53.170;18.160;2024-02-26T22:26:00;37.40;;;17.60;;
81298;SDS011;70766;53.170;18.160;2024-02-26T22:28:28;38.60;;;17.70;;
81298;SDS011;70766;53.170;18.160;2024-02-26T22:30:56;49.00;;;22.60;;
81298;SDS011;70766;53.170;18.160;2024-02-26T22:33:25;55.20;;;25.90;;
81298;SDS011;70766;53.170;18.160;2024-02-26T22:35:53;46.70;;;22.90;;
81298;SDS011;70766;53.170;18.160;2024-02-26T22:38:21;48.80;;;23.90;;
81298;SDS011;70766;53.170;18.160;2024-02-26T22:40:51;55.00;;;25.30;;
81298;SDS011;70766;53.170;18.160;2024-02-26T22:43:19;34.90;;;16.20;;
81298;SDS011;70766;53.170;18.160;2024-02-26T22:45:48;52.70;;;25.50;;
81298;SDS011;70766;53.170;18.160;2024-02-26T22:48:17;33.70;;;17.80;;
81298;SDS011;70766;53.170;18.160;2024-02-26T22:50:48;49.60;;;24.00;;
81298;SDS011;70766;53.170;18.160;2024-02-26T22:53:17;55.90;;;27.00;;
81298;SDS011;70766;53.170;18.160;2024-02-26T22:55:45;52.50;;;26.10;;
81298;SDS011;70766;53.170;18.160;2024-02-26T22:58:18;50.70;;;26.00;;
81298;SDS011;70766;53.170;18.160;2024-02-26T23:00:48;51.40;;;23.40;;
81298;SDS011;70766;53.170;18.160;2024-02-26T23:03:16;52.20;;;25.10;;
81298;SDS011;70766;53.170;18.160;2024-02-26T23:05:45;51.50;;;25.30;;
81298;SDS011;70766;53.170;18.160;2024-02-26T23:08:14;46.30;;;21.10;;
81298;SDS011;70766;53.170;18.160;2024-02-26T23:10:45;58.50;;;27.80;;
81298;SDS011;70766;53.170;18.160;2024-02-26T23:13:13;46.40;;;21.10;;
81298;SDS011;70766;53.170;18.160;2024-02-26T23:15:42;49.50;;;24.30;;
81298;SDS011;70766;53.170;18.160;2024-02-26T23:18:10;56.20;;;26.60;;
81298;SDS011;70766;53.170;18.160;2024-02-26T23:20:39;50.50;;;24.40;;
81298;SDS011;70766;53.170;18.160;2024-02-26T23:23:07;56.60;;;27.40;;
81298;SDS011;70766;53.170;18.160;2024-02-26T23:25:35;50.80;;;24.60;;
81298;SDS011;70766;53.170;18.160;2024-02-26T23:28:03;58.60;;;29.10;;
81298;SDS011;70766;53.170;18.160;2024-02-26T23:30:32;50.90;;;24.10;;
81298;SDS011;70766;53.170;18.160;2024-02-26T23:33:01;65.60;;;29.10;;
81298;SDS011;70766;53.170;18.160;2024-02-26T23:35:29;54.60;;;25.00;;